Nordpanther — 5BDV4 — position and weather

sailwx.info

Track history (hours):
 
Tides and Currents Weather Stations Pressure Air Temp Water Temp Dewpoint Dewpoint Depression Visibility Wind Speed Wind Dir Waves Ship Positions

Nordpanther

Last reported at 2017-Nov-19 00:42 UTC. Time now 2017-Nov-23 05:21 UTC.
Position N 34°52' E 139°19'.

Length 170 m; draft 7.6 m.

Type: Ship (hazmat cat A). MMSI: 212531000.

Date/timePositionNaut miles runAvg speedWind from/ knotsBaromVisibWave heightAir tempDewpointWater temp
2017-Nov-19 00:42N 34°52' E 139°19'412.6
2017-Nov-19 00:24N 34°54' E 139°23'614.8
2017-Nov-19 00:00N 34°57' E 139°29'814.8
2017-Nov-18 23:30N 35°02' E 139°36'714.7
2017-Nov-18 23:00N 35°06' E 139°43'714.0
2017-Nov-18 22:30N 35°13' E 139°46'612.2
2017-Nov-18 22:00N 35°18' E 139°44'713.4
2017-Nov-18 21:30N 35°25' E 139°43'2 3.6
2017-Nov-18 21:00N 35°26' E 139°41'0 0.0
2017-Nov-18 20:29N 35°26' E 139°41'0 0.0
2017-Nov-18 19:56N 35°26' E 139°41'0 0.1
2017-Nov-18 19:29N 35°26' E 139°41'0 0.1
2017-Nov-18 18:59N 35°26' E 139°41'0 0.0
2017-Nov-18 18:29N 35°26' E 139°41'0 0.0
2017-Nov-18 17:59N 35°26' E 139°41'0 0.0
2017-Nov-18 17:29N 35°26' E 139°41'0 0.0
2017-Nov-18 16:59N 35°26' E 139°41'0 0.0
2017-Nov-18 16:29N 35°26' E 139°41'0 0.0
2017-Nov-18 15:59N 35°26' E 139°41'0 0.0
2017-Nov-18 15:29N 35°26' E 139°41'0 0.0
2017-Nov-18 14:59N 35°26' E 139°41'0 0.0
2017-Nov-18 14:29N 35°26' E 139°41'0 0.0
2017-Nov-18 13:59N 35°26' E 139°41'0 0.0
2017-Nov-18 13:23N 35°26' E 139°41'0 0.0
2017-Nov-18 12:59N 35°26' E 139°41'0 0.0
2017-Nov-18 12:29N 35°26' E 139°41'0 0.0
2017-Nov-18 11:59N 35°26' E 139°41'0 0.0
2017-Nov-18 11:29N 35°26' E 139°41'0 0.0
2017-Nov-18 10:59N 35°26' E 139°41'0 0.0
2017-Nov-18 10:29N 35°26' E 139°41'0 0.0
2017-Nov-18 09:59N 35°26' E 139°41'0 0.0
2017-Nov-18 09:23N 35°26' E 139°41'0 0.0
2017-Nov-18 08:59N 35°26' E 139°41'0 0.0
2017-Nov-18 08:29N 35°26' E 139°41'0 0.1
2017-Nov-18 08:00N 35°26' E 139°41'3 6.6
2017-Nov-18 07:31N 35°27' E 139°45'510.6
2017-Nov-18 07:01N 35°29' E 139°51'611.0
2017-Nov-18 06:28N 35°35' E 139°48'3 0.1
2017-Nov-17 11:13N 35°37' E 139°46'2 7.5
2017-Nov-17 10:57N 35°35' E 139°47'4 9.6
2017-Nov-17 10:30N 35°33' E 139°51'510.2
2017-Nov-17 10:00N 35°28' E 139°50'612.9
2017-Nov-17 09:30N 35°22' E 139°45'611.5
2017-Nov-17 09:00N 35°17' E 139°46'611.7
2017-Nov-17 08:30N 35°11' E 139°47'510.5
2017-Nov-17 08:00N 35°06' E 139°46'713.0
2017-Nov-17 07:30N 35°01' E 139°40'816.0
2017-Nov-17 07:00N 34°57' E 139°32'  
2017-Nov-12 09:22N 22°07' E 114°55'1216.3
2017-Nov-12 08:39N 22°06' E 114°43'316.5
2017-Nov-12 08:30N 22°06' E 114°40'816.4
2017-Nov-12 08:00N 22°07' E 114°31'816.4
2017-Nov-12 07:30N 22°06' E 114°22'916.0
2017-Nov-12 06:57N 22°08' E 114°13'715.2
2017-Nov-12 06:30N 22°13' E 114°09'2 0.1
2017-Nov-11 11:54N 22°15' E 114°08'15 8.3
2017-Nov-11 10:04N 22°07' E 114°22'111.4
2017-Nov-11 10:00N 22°06' E 114°23'10 8.1
2017-Nov-11 08:43N 21°56' E 114°21'1 2.3
2017-Nov-11 08:30N 21°56' E 114°21'  
Track history (hours):
 
Tides and Currents Weather Stations Pressure Air Temp Water Temp Dewpoint Dewpoint Depression Visibility Wind Speed Wind Dir Waves Ship Positions

Nordpanther

Last reported at 2017-Nov-19 00:42 UTC. Time now 2017-Nov-23 05:21 UTC.
Position N 34°52' E 139°19'.

Length 170 m; draft 7.6 m.

Type: Ship (hazmat cat A). MMSI: 212531000.

Date/timePositionNaut miles runAvg speedWind from/ knotsBaromVisibWave heightAir tempDewpointWater temp
2017-Nov-19 00:42N 34°52' E 139°19'412.6
2017-Nov-19 00:24N 34°54' E 139°23'614.8
2017-Nov-19 00:00N 34°57' E 139°29'814.8
2017-Nov-18 23:30N 35°02' E 139°36'714.7
2017-Nov-18 23:00N 35°06' E 139°43'714.0
2017-Nov-18 22:30N 35°13' E 139°46'612.2
2017-Nov-18 22:00N 35°18' E 139°44'713.4
2017-Nov-18 21:30N 35°25' E 139°43'2 3.6
2017-Nov-18 21:00N 35°26' E 139°41'0 0.0
2017-Nov-18 20:29N 35°26' E 139°41'0 0.0
2017-Nov-18 19:56N 35°26' E 139°41'0 0.1
2017-Nov-18 19:29N 35°26' E 139°41'0 0.1
2017-Nov-18 18:59N 35°26' E 139°41'0 0.0
2017-Nov-18 18:29N 35°26' E 139°41'0 0.0
2017-Nov-18 17:59N 35°26' E 139°41'0 0.0
2017-Nov-18 17:29N 35°26' E 139°41'0 0.0
2017-Nov-18 16:59N 35°26' E 139°41'0 0.0
2017-Nov-18 16:29N 35°26' E 139°41'0 0.0
2017-Nov-18 15:59N 35°26' E 139°41'0 0.0
2017-Nov-18 15:29N 35°26' E 139°41'0 0.0
2017-Nov-18 14:59N 35°26' E 139°41'0 0.0
2017-Nov-18 14:29N 35°26' E 139°41'0 0.0
2017-Nov-18 13:59N 35°26' E 139°41'0 0.0
2017-Nov-18 13:23N 35°26' E 139°41'0 0.0
2017-Nov-18 12:59N 35°26' E 139°41'0 0.0
2017-Nov-18 12:29N 35°26' E 139°41'0 0.0
2017-Nov-18 11:59N 35°26' E 139°41'0 0.0
2017-Nov-18 11:29N 35°26' E 139°41'0 0.0
2017-Nov-18 10:59N 35°26' E 139°41'0 0.0
2017-Nov-18 10:29N 35°26' E 139°41'0 0.0
2017-Nov-18 09:59N 35°26' E 139°41'0 0.0
2017-Nov-18 09:23N 35°26' E 139°41'0 0.0
2017-Nov-18 08:59N 35°26' E 139°41'0 0.0
2017-Nov-18 08:29N 35°26' E 139°41'0 0.1
2017-Nov-18 08:00N 35°26' E 139°41'3 6.6
2017-Nov-18 07:31N 35°27' E 139°45'510.6
2017-Nov-18 07:01N 35°29' E 139°51'611.0
2017-Nov-18 06:28N 35°35' E 139°48'3 0.1
2017-Nov-17 11:13N 35°37' E 139°46'2 7.5
2017-Nov-17 10:57N 35°35' E 139°47'4 9.6
2017-Nov-17 10:30N 35°33' E 139°51'510.2
2017-Nov-17 10:00N 35°28' E 139°50'612.9
2017-Nov-17 09:30N 35°22' E 139°45'611.5
2017-Nov-17 09:00N 35°17' E 139°46'611.7
2017-Nov-17 08:30N 35°11' E 139°47'510.5
2017-Nov-17 08:00N 35°06' E 139°46'713.0
2017-Nov-17 07:30N 35°01' E 139°40'816.0
2017-Nov-17 07:00N 34°57' E 139°32'  
2017-Nov-12 09:22N 22°07' E 114°55'1216.3
2017-Nov-12 08:39N 22°06' E 114°43'316.5
2017-Nov-12 08:30N 22°06' E 114°40'816.4
2017-Nov-12 08:00N 22°07' E 114°31'816.4
2017-Nov-12 07:30N 22°06' E 114°22'916.0
2017-Nov-12 06:57N 22°08' E 114°13'715.2
2017-Nov-12 06:30N 22°13' E 114°09'2 0.1
2017-Nov-11 11:54N 22°15' E 114°08'15 8.3
2017-Nov-11 10:04N 22°07' E 114°22'111.4
2017-Nov-11 10:00N 22°06' E 114°23'10 8.1
2017-Nov-11 08:43N 21°56' E 114°21'1 2.3
2017-Nov-11 08:30N 21°56' E 114°21'  

Dump ship's entire track history